createdAt,value
2023-01-23T00:00:14.662Z,25.20
2023-01-23T01:03:37.509Z,27.92
2023-01-23T01:33:26.711Z,27.08
2023-01-23T02:41:49.682Z,27.00
2023-01-23T03:25:47.199Z,28.30
2023-01-23T03:28:33.393Z,26.77
2023-01-23T03:53:26.685Z,27.83
2023-01-23T04:05:09.655Z,32.80
2023-01-23T04:29:29.957Z,27.20
2023-01-23T04:31:57.433Z,33.15
2023-01-23T06:13:12.031Z,31.75
2023-01-23T06:37:41.687Z,28.58
2023-01-23T06:40:13.363Z,29.75
2023-01-23T06:51:29.925Z,31.45
2023-01-23T06:58:16.848Z,30.42
2023-01-23T07:00:44.650Z,29.65
2023-01-23T07:03:18.045Z,29.75
2023-01-23T07:05:45.536Z,28.88
2023-01-23T07:08:13.035Z,34.30
2023-01-23T07:10:40.741Z,28.33
2023-01-23T07:13:09.780Z,30.33
2023-01-23T07:15:39.677Z,30.95
2023-01-23T07:18:09.793Z,33.30
2023-01-23T07:20:38.720Z,32.80
2023-01-23T07:23:06.204Z,35.03
2023-01-23T07:25:33.695Z,32.55
2023-01-23T07:28:01.281Z,35.78
2023-01-23T07:30:29.488Z,32.20
2023-01-23T07:32:58.279Z,34.10
2023-01-23T07:35:26.116Z,34.53
2023-01-23T07:37:53.497Z,31.45
2023-01-23T07:40:21.424Z,35.45
2023-01-23T07:42:52.995Z,36.45
2023-01-23T07:45:20.715Z,33.28
2023-01-23T07:47:48.078Z,33.10
2023-01-23T07:50:15.688Z,34.42
2023-01-23T07:52:43.409Z,33.20
2023-01-23T07:55:10.789Z,38.38
2023-01-23T07:57:38.253Z,35.75
2023-01-23T08:00:06.215Z,33.33
2023-01-23T08:02:33.695Z,33.10
2023-01-23T08:05:01.917Z,36.83
2023-01-23T08:07:29.502Z,32.55
2023-01-23T08:09:57.095Z,36.65
2023-01-23T08:12:24.821Z,38.20
2023-01-23T08:14:52.299Z,30.13
2023-01-23T08:17:19.914Z,34.70
2023-01-23T08:19:47.390Z,34.40
2023-01-23T08:22:14.997Z,34.00
2023-01-23T08:24:42.492Z,35.50
2023-01-23T08:27:09.953Z,31.25
2023-01-23T08:29:37.547Z,33.78
2023-01-23T08:32:05.301Z,36.42
2023-01-23T08:34:32.872Z,32.00
2023-01-23T08:37:00.263Z,33.50
2023-01-23T08:39:28.216Z,33.15
2023-01-23T08:41:55.710Z,32.90
2023-01-23T08:44:24.241Z,35.78
2023-01-23T08:46:52.082Z,33.70
2023-01-23T08:49:20.320Z,31.02
2023-01-23T08:51:47.890Z,36.95
2023-01-23T08:54:15.726Z,32.50
2023-01-23T08:56:43.328Z,32.30
2023-01-23T08:59:10.706Z,32.60
2023-01-23T09:05:19.236Z,31.10
2023-01-23T09:07:47.784Z,33.05
2023-01-23T09:10:15.492Z,35.13
2023-01-23T09:12:43.342Z,31.20
2023-01-23T09:15:11.439Z,33.85
2023-01-23T09:17:39.036Z,32.42
2023-01-23T09:20:07.344Z,30.70
2023-01-23T09:22:34.703Z,33.30
2023-01-23T09:25:02.064Z,31.45
2023-01-23T09:27:29.667Z,32.90
2023-01-23T09:29:57.163Z,30.88
2023-01-23T09:32:24.644Z,31.00
2023-01-23T09:34:52.114Z,34.60
2023-01-23T09:37:19.599Z,31.02
2023-01-23T09:39:47.332Z,32.13
2023-01-23T09:42:21.399Z,34.78
2023-01-23T09:44:51.398Z,34.25
2023-01-23T09:47:39.166Z,34.47
2023-01-23T09:50:08.813Z,37.17
2023-01-23T09:52:40.725Z,32.10
2023-01-23T09:55:25.274Z,33.35
2023-01-23T09:57:55.857Z,29.25
2023-01-23T10:00:27.685Z,33.92
2023-01-23T10:02:56.854Z,31.42
2023-01-23T10:05:33.290Z,33.10
2023-01-23T10:08:27.891Z,30.92
2023-01-23T10:11:09.068Z,29.45
2023-01-23T10:13:49.175Z,32.67
2023-01-23T10:16:50.356Z,28.75
2023-01-23T10:19:24.666Z,29.10
2023-01-23T10:21:59.360Z,27.73
2023-01-23T10:24:49.387Z,31.05
2023-01-23T10:27:18.798Z,30.20
2023-01-23T10:30:02.618Z,30.95
2023-01-23T10:32:32.113Z,32.17
2023-01-23T10:35:12.733Z,29.40
2023-01-23T10:37:54.198Z,29.80
2023-01-23T10:40:42.215Z,31.55
2023-01-23T10:43:14.964Z,34.33
2023-01-23T10:45:43.472Z,33.83
2023-01-23T10:48:38.122Z,35.90
2023-01-23T10:51:31.376Z,32.25
2023-01-23T10:54:30.876Z,27.50
2023-01-23T10:57:18.565Z,30.15
2023-01-23T11:00:20.857Z,30.65
2023-01-23T11:02:48.520Z,30.38
2023-01-23T11:05:52.960Z,30.40
2023-01-23T11:08:38.267Z,30.88
2023-01-23T11:11:14.858Z,31.13
2023-01-23T11:13:44.273Z,33.03
2023-01-23T11:16:21.251Z,28.25
2023-01-23T11:19:05.507Z,31.55
2023-01-23T11:21:57.351Z,29.38
2023-01-23T11:24:38.386Z,30.15
2023-01-23T11:27:17.758Z,31.35
2023-01-23T11:29:58.916Z,28.55
2023-01-23T11:32:26.359Z,28.60
2023-01-23T11:35:01.075Z,32.08
2023-01-23T11:37:32.516Z,26.77
2023-01-23T11:40:20.038Z,29.15
2023-01-23T11:42:48.720Z,29.63
2023-01-23T11:45:43.808Z,29.73
2023-01-23T11:48:20.197Z,31.63
2023-01-23T11:50:56.190Z,27.85
2023-01-23T11:53:42.275Z,29.50
2023-01-23T11:56:45.993Z,26.60
2023-01-23T11:59:22.785Z,29.08
2023-01-23T12:02:03.094Z,30.45
2023-01-23T12:04:44.649Z,27.25
2023-01-23T12:07:18.749Z,25.75
2023-01-23T12:09:48.977Z,26.52
2023-01-23T12:12:19.937Z,26.67
2023-01-23T12:14:59.913Z,23.98
2023-01-23T12:17:33.877Z,25.50
2023-01-23T12:20:38.428Z,25.17
2023-01-23T12:23:16.945Z,22.90
2023-01-23T12:26:08.193Z,25.13
2023-01-23T12:28:57.144Z,22.50
2023-01-23T12:32:04.031Z,25.52
2023-01-23T12:34:59.317Z,22.33
2023-01-23T12:38:04.237Z,24.48
2023-01-23T12:40:51.036Z,25.13
2023-01-23T12:43:19.606Z,23.80
2023-01-23T12:45:56.321Z,20.73
2023-01-23T12:48:28.666Z,21.70
2023-01-23T12:51:06.813Z,22.52
2023-01-23T12:53:42.297Z,27.63
2023-01-23T12:56:23.327Z,21.40
2023-01-23T12:58:53.691Z,24.27
2023-01-23T13:01:26.135Z,26.15
2023-01-23T13:03:53.575Z,23.80
2023-01-23T13:06:39.658Z,20.83
2023-01-23T13:09:33.434Z,23.88
2023-01-23T13:12:22.049Z,19.50
2023-01-23T13:15:14.492Z,23.02
2023-01-23T13:17:47.126Z,23.23
2023-01-23T13:20:40.661Z,22.42
2023-01-23T13:23:27.069Z,22.40
2023-01-23T13:26:26.486Z,20.98
2023-01-23T13:28:55.752Z,21.17
2023-01-23T13:31:50.557Z,20.95
2023-01-23T13:34:18.704Z,21.95
2023-01-23T13:36:47.600Z,20.85
2023-01-23T13:39:18.074Z,23.30
2023-01-23T13:41:50.236Z,19.52
2023-01-23T13:44:40.886Z,21.13
2023-01-23T14:21:41.781Z,18.75
2023-01-23T14:24:25.100Z,19.42
2023-01-23T14:27:04.439Z,21.40
2023-01-23T14:29:32.401Z,17.40
2023-01-23T14:31:59.893Z,17.20
2023-01-23T14:34:27.730Z,18.65
2023-01-23T14:37:04.219Z,19.13
2023-01-23T14:39:33.953Z,17.13
2023-01-23T14:50:50.292Z,18.27
2023-01-23T14:57:32.550Z,14.55
2023-01-23T15:00:00.017Z,18.85
2023-01-23T20:33:14.149Z,18.58
2023-01-23T21:24:21.091Z,19.40
2023-01-23T21:52:41.182Z,20.77
2023-01-23T22:17:12.210Z,20.88
2023-01-23T22:23:51.348Z,19.70
2023-01-23T22:49:21.140Z,21.67
2023-01-23T22:56:13.127Z,21.63
2023-01-23T22:59:31.200Z,21.73
2023-01-23T23:11:52.715Z,21.20
